Terminal Aerodrome Forecast
Issued by NWS

Home | Current Version | Previous Version | Text Only | Print | Product List | Glossary On
Versions: 1 2 3 4 5 6 7 8 9 10 11 12 13
302
FTUS46 KMFR 291752
TAFRBG
TAF
KRBG 291752Z 2918/3018 00000KT P6SM -RA BKN050 BKN080 OVC090
     FM292100 19004KT 4SM RA BR BKN007 OVC015
     FM300100 24006KT P6SM -RA OVC015
     FM300600 34003KT P6SM -SHRA BKN025 OVC040=

USA.gov is the U.S. government's official web portal to all federal, state and local government web resources and services.